Time;durP1;ratioP1;P1;durP2;ratioP2;P2;SDS_P1;SDS_P2;PMS_P1;PMS_P2;Temp;Humidity;BMP_temperature;BMP_pressure;BME280_temperature;BME280_humidity;BME280_pressure;Samples;Min_cycle;Max_cycle;Signal;HPM_P1;HPM_P2
2021/06/28 00:01:55;;;;;;;0.50;0.27;;;;;;;19.37;100.00;99991.16;5057007;28;21315;-54
2021/06/28 00:04:22;;;;;;;0.80;0.80;;;;;;;19.54;100.00;99989.97;5058401;28;20457;-54
2021/06/28 00:06:49;;;;;;;4.40;0.63;;;;;;;19.57;100.00;99992.47;5071782;28;20485;-54
2021/06/28 00:09:15;;;;;;;0.57;0.47;;;;;;;19.71;100.00;99988.81;5071982;28;20449;-54
2021/06/28 00:11:42;;;;;;;0.87;0.87;;;;;;;19.55;100.00;99982.78;5071737;28;20466;-54
2021/06/28 00:14:09;;;;;;;0.50;0.30;;;;;;;19.48;100.00;99976.94;5071903;28;20438;-54
2021/06/28 00:16:35;;;;;;;0.50;0.20;;;;;;;19.21;100.00;99980.59;5065566;28;20457;-54
2021/06/28 00:19:03;;;;;;;0.50;0.33;;;;;;;19.09;100.00;99978.75;5054254;28;20462;-54
2021/06/28 00:21:30;;;;;;;0.50;0.47;;;;;;;19.10;100.00;99976.91;5062545;28;20559;-54
2021/06/28 00:23:57;;;;;;;0.50;0.20;;;;;;;19.13;100.00;99976.69;5070632;28;20935;-54
2021/06/28 00:26:26;;;;;;;0.40;0.30;;;;;;;19.27;100.00;99992.75;5071909;28;20492;-54
2021/06/28 00:28:53;;;;;;;0.50;0.23;;;;;;;19.27;100.00;99983.81;5057186;28;20450;-54
2021/06/28 00:31:19;;;;;;;0.50;0.40;;;;;;;19.21;100.00;99982.44;5064460;28;20478;-54
2021/06/28 00:33:46;;;;;;;0.50;0.20;;;;;;;19.33;100.00;99984.28;5066309;28;20833;-54
2021/06/28 00:36:13;;;;;;;0.50;0.30;;;;;;;19.29;100.00;99984.56;5051562;28;20443;-54
2021/06/28 00:38:40;;;;;;;0.50;0.20;;;;;;;19.26;100.00;99991.03;5070784;28;20449;-54
2021/06/28 00:41:06;;;;;;;0.50;0.20;;;;;;;19.30;100.00;99991.69;5071798;28;20469;-54
2021/06/28 00:43:33;;;;;;;0.50;0.20;;;;;;;19.14;100.00;99994.59;5071440;28;20515;-54
2021/06/28 00:46:00;;;;;;;0.40;0.20;;;;;;;19.18;100.00;99999.63;5070157;28;20531;-54
2021/06/28 00:48:27;;;;;;;0.40;0.20;;;;;;;19.08;100.00;99992.31;5051963;28;20858;-54
2021/06/28 00:50:54;;;;;;;0.50;0.20;;;;;;;19.02;100.00;99993.59;5063379;28;20524;-54
2021/06/28 00:53:22;;;;;;;0.60;0.50;;;;;;;18.99;100.00;99998.31;5073504;28;20465;-54
2021/06/28 00:55:50;;;;;;;0.50;0.30;;;;;;;19.16;100.00;100004.28;5075711;28;20450;-54
2021/06/28 00:58:17;;;;;;;0.50;0.20;;;;;;;19.10;100.00;100002.03;5061951;28;20454;-54
2021/06/28 01:00:44;;;;;;;0.50;0.40;;;;;;;19.22;100.00;99998.47;5067602;28;20478;-54
2021/06/28 01:03:12;;;;;;;0.50;0.50;;;;;;;19.22;100.00;100003.00;5062209;28;20475;-54
2021/06/28 01:05:40;;;;;;;0.50;0.20;;;;;;;18.91;100.00;100001.53;5075192;28;20469;-54
2021/06/28 01:08:08;;;;;;;0.50;0.33;;;;;;;18.92;100.00;99995.19;5067671;28;20976;-54
2021/06/28 01:10:37;;;;;;;1.13;0.70;;;;;;;18.92;100.00;99992.50;5069469;28;20465;-54
2021/06/28 01:13:05;;;;;;;0.60;0.60;;;;;;;19.11;100.00;99998.34;5075150;28;20499;-54
2021/06/28 01:15:32;;;;;;;2.33;0.63;;;;;;;19.03;100.00;100002.53;5072042;28;20512;-54
2021/06/28 01:18:01;;;;;;;0.50;0.20;;;;;;;18.91;100.00;99998.84;5066664;28;20543;-54
2021/06/28 01:20:29;;;;;;;0.50;0.30;;;;;;;18.96;100.00;100007.47;5070456;28;21040;-54
2021/06/28 01:23:06;;;;;;;0.43;0.20;;;;;;;18.91;100.00;100007.81;5064618;28;20920;-54
2021/06/28 01:25:33;;;;;;;0.43;0.20;;;;;;;18.72;100.00;100012.69;5072400;28;20958;-54
2021/06/28 01:28:00;;;;;;;1.90;0.53;;;;;;;18.70;100.00;100009.22;5074624;28;20486;-54
2021/06/28 01:30:29;;;;;;;0.40;0.20;;;;;;;18.69;100.00;100017.41;5068196;28;20517;-54
2021/06/28 01:32:56;;;;;;;0.43;0.20;;;;;;;18.76;100.00;100026.78;5066687;28;20454;-54
2021/06/28 01:35:23;;;;;;;0.47;0.27;;;;;;;18.90;100.00;100024.03;5074577;28;20451;-55
2021/06/28 01:37:51;;;;;;;0.50;0.40;;;;;;;18.89;100.00;100022.31;5073368;28;20978;-54
2021/06/28 01:40:18;;;;;;;0.40;0.20;;;;;;;18.94;100.00;100021.06;5055396;28;20844;-54
2021/06/28 01:42:46;;;;;;;0.40;0.20;;;;;;;18.89;100.00;100017.78;5067064;28;20495;-54
2021/06/28 01:45:20;;;;;;;0.43;0.20;;;;;;;18.72;100.00;100026.16;5068140;28;20471;-54
2021/06/28 01:47:48;;;;;;;0.40;0.30;;;;;;;18.83;100.00;100038.91;5067981;28;20477;-54
2021/06/28 01:50:16;;;;;;;0.70;0.70;;;;;;;18.82;100.00;100034.47;5074412;28;20534;-54
2021/06/28 01:52:43;;;;;;;0.40;0.20;;;;;;;18.80;100.00;100028.34;5060696;28;20455;-54
2021/06/28 01:55:13;;;;;;;0.63;0.57;;;;;;;19.22;100.00;100013.78;5074290;28;20429;-54
2021/06/28 01:57:46;;;;;;;0.40;0.20;;;;;;;18.91;100.00;100015.00;5074308;28;20599;-54
2021/06/28 02:00:16;;;;;;;0.40;0.20;;;;;;;19.11;100.00;100017.22;5070631;28;20477;-54
2021/06/28 02:03:02;;;;;;;0.40;0.20;;;;;;;19.15;100.00;100013.34;5057018;28;20457;-54
2021/06/28 02:05:31;;;;;;;0.50;0.20;;;;;;;19.16;100.00;100011.50;5073077;28;20943;-54
2021/06/28 02:08:00;;;;;;;1.07;1.07;;;;;;;19.20;100.00;100000.44;5074155;28;20895;-54
2021/06/28 02:10:27;;;;;;;0.50;0.50;;;;;;;19.36;100.00;100007.44;5073854;28;20990;-54
2021/06/28 02:12:54;;;;;;;0.40;0.20;;;;;;;19.24;100.00;99999.25;5054205;28;20501;-54
2021/06/28 02:15:26;;;;;;;0.40;0.20;;;;;;;19.30;100.00;99999.78;5065563;28;20462;-54
2021/06/28 02:17:53;;;;;;;0.60;0.50;;;;;;;19.25;100.00;100005.50;5061728;28;20469;-54
2021/06/28 02:20:20;;;;;;;0.40;0.30;;;;;;;19.34;100.00;100004.88;5073607;28;20943;-54
2021/06/28 02:22:49;;;;;;;0.40;0.20;;;;;;;19.14;100.00;100003.53;5063798;28;20889;-54
2021/06/28 02:25:16;;;;;;;0.40;0.30;;;;;;;19.15;100.00;100007.94;5073768;28;20859;-54
2021/06/28 02:27:43;;;;;;;0.50;0.50;;;;;;;19.14;100.00;100008.06;5073587;28;20494;-54
2021/06/28 02:30:16;;;;;;;0.50;0.37;;;;;;;19.14;100.00;100006.22;5064779;28;20477;-54
2021/06/28 02:32:43;;;;;;;2.63;2.53;;;;;;;19.15;100.00;100004.38;5063264;28;20454;-54
2021/06/28 02:35:12;;;;;;;0.40;0.20;;;;;;;19.15;100.00;99993.59;5070259;28;20462;-54
2021/06/28 02:37:41;;;;;;;0.40;0.20;;;;;;;19.13;100.00;99999.09;5053566;28;21002;-54
2021/06/28 02:40:11;;;;;;;0.40;0.20;;;;;;;19.13;100.00;99985.63;5057143;28;20470;-54
2021/06/28 02:42:38;;;;;;;0.87;0.87;;;;;;;19.14;100.00;99984.66;5073431;28;20416;-54
2021/06/28 02:45:07;;;;;;;0.50;0.40;;;;;;;19.06;100.00;99981.66;5067010;28;20997;-54
2021/06/28 02:47:34;;;;;;;0.50;0.30;;;;;;;19.01;100.00;99975.69;5052994;28;21006;-54
2021/06/28 02:50:09;;;;;;;1.23;1.03;;;;;;;19.14;100.00;99978.41;5071976;28;20560;-54
2021/06/28 02:52:35;;;;;;;0.50;0.37;;;;;;;19.13;100.00;99974.84;5072974;28;20459;-54
2021/06/28 02:55:04;;;;;;;0.50;0.43;;;;;;;19.00;100.00;99968.59;5072678;28;20453;-54
2021/06/28 02:57:31;;;;;;;0.60;0.60;;;;;;;18.80;100.00;99961.88;5073599;28;20996;-54
2021/06/28 02:59:58;;;;;;;0.50;0.47;;;;;;;18.90;100.00;99967.47;5052048;28;20493;-54
2021/06/28 03:02:25;;;;;;;0.40;0.30;;;;;;;18.89;100.00;99969.31;5052907;28;20505;-54
2021/06/28 03:04:52;;;;;;;0.40;0.20;;;;;;;18.83;100.00;99979.66;5053048;28;20457;-55
2021/06/28 03:07:19;;;;;;;0.40;0.30;;;;;;;18.82;100.00;99972.53;5052789;28;20486;-55
2021/06/28 03:09:45;;;;;;;0.50;0.30;;;;;;;18.79;100.00;99978.16;5052575;28;20509;-55
2021/06/28 03:12:12;;;;;;;0.50;0.30;;;;;;;18.84;100.00;99981.38;5052403;28;20940;-55
2021/06/28 03:14:40;;;;;;;0.40;0.20;;;;;;;18.71;100.00;99969.69;5062734;28;20466;-55
2021/06/28 03:17:07;;;;;;;2.00;1.90;;;;;;;18.63;100.00;99957.59;5072315;28;20500;-55
2021/06/28 03:19:33;;;;;;;0.40;0.30;;;;;;;18.59;100.00;99961.44;5072411;28;20808;-55
2021/06/28 03:22:00;;;;;;;0.40;0.30;;;;;;;18.70;100.00;99965.28;5072020;28;20477;-55
2021/06/28 03:24:27;;;;;;;0.40;0.20;;;;;;;18.72;100.00;99964.22;5072582;28;20445;-56
2021/06/28 03:26:53;;;;;;;0.73;0.73;;;;;;;18.66;100.00;99956.56;5072021;28;20485;-55
2021/06/28 03:29:20;;;;;;;0.40;0.20;;;;;;;18.51;100.00;99941.41;5061133;28;20458;-55
2021/06/28 03:31:47;;;;;;;0.40;0.20;;;;;;;18.79;100.00;99929.66;5055563;28;20475;-55
2021/06/28 03:34:13;;;;;;;0.50;0.40;;;;;;;18.55;100.00;99921.38;5071873;28;20445;-56
2021/06/28 03:36:41;;;;;;;0.50;0.40;;;;;;;18.72;100.00;99923.81;5069343;28;20459;-55
2021/06/28 03:39:09;;;;;;;0.40;0.30;;;;;;;18.73;100.00;99913.91;5061751;28;20460;-55
2021/06/28 03:41:36;;;;;;;0.60;0.60;;;;;;;18.76;100.00;99913.69;5071627;28;20466;-55
2021/06/28 03:44:04;;;;;;;0.40;0.30;;;;;;;18.81;100.00;99903.50;5060654;28;20485;-56
2021/06/28 03:46:31;;;;;;;0.80;0.80;;;;;;;18.91;100.00;99913.53;5068452;28;20457;-55
2021/06/28 03:48:58;;;;;;;0.40;0.20;;;;;;;19.04;100.00;99904.56;5071739;28;21000;-55
2021/06/28 03:51:24;;;;;;;0.40;0.30;;;;;;;19.12;100.00;99903.06;5071374;28;20474;-55
2021/06/28 03:53:52;;;;;;;1.40;1.30;;;;;;;19.02;100.00;99910.06;5071764;28;20551;-55
2021/06/28 03:56:18;;;;;;;0.40;0.20;;;;;;;19.03;100.00;99905.53;5071202;28;20549;-55
2021/06/28 03:58:45;;;;;;;0.40;0.20;;;;;;;19.18;100.00;99905.31;5060659;28;20997;-55
2021/06/28 04:01:12;;;;;;;0.47;0.30;;;;;;;19.10;100.00;99906.84;5064101;28;20551;-55
2021/06/28 04:03:39;;;;;;;0.40;0.20;;;;;;;19.12;100.00;99921.06;5060115;28;20532;-55
2021/06/28 04:06:08;;;;;;;0.50;0.40;;;;;;;19.14;100.00;99920.00;5057178;28;20793;-55
2021/06/28 04:08:37;;;;;;;0.40;0.20;;;;;;;19.24;100.00;99937.25;5071820;28;20486;-55
2021/06/28 04:11:05;;;;;;;2.30;0.73;;;;;;;19.21;100.00;99939.31;5066078;28;20525;-55
2021/06/28 04:13:32;;;;;;;1.03;0.73;;;;;;;19.51;100.00;99934.44;5063721;28;20531;-55
2021/06/28 04:15:58;;;;;;;0.43;0.30;;;;;;;19.55;100.00;99951.28;5057819;28;20450;-55
2021/06/28 04:18:25;;;;;;;0.40;0.20;;;;;;;19.48;100.00;99958.06;5071988;28;20477;-55
2021/06/28 04:20:52;;;;;;;0.47;0.37;;;;;;;19.34;100.00;99955.47;5072026;28;20477;-55
2021/06/28 04:23:18;;;;;;;0.40;0.30;;;;;;;19.48;100.00;99976.94;5072253;28;20445;-55
2021/06/28 04:25:45;;;;;;;1.17;1.17;;;;;;;19.55;100.00;99983.66;5058534;28;20442;-55
2021/06/28 04:28:12;;;;;;;0.50;0.33;;;;;;;19.54;100.00;100006.16;5064092;28;20617;-55
2021/06/28 04:30:39;;;;;;;0.40;0.20;;;;;;;19.66;100.00;100012.56;5069417;28;20911;-55
2021/06/28 04:33:06;;;;;;;0.53;0.30;;;;;;;19.58;100.00;100012.22;5069094;28;20450;-55
2021/06/28 04:35:32;;;;;;;0.60;0.60;;;;;;;19.73;100.00;100013.84;5076140;28;20446;-55
2021/06/28 04:38:00;;;;;;;1.17;1.07;;;;;;;19.74;100.00;100019.16;5063034;28;20447;-55
2021/06/28 04:40:29;;;;;;;0.50;0.20;;;;;;;19.50;100.00;100010.03;5062199;28;20552;-55
2021/06/28 04:42:56;;;;;;;0.40;0.20;;;;;;;19.65;100.00;100006.31;5066831;28;20469;-54
2021/06/28 04:45:24;;;;;;;0.60;0.60;;;;;;;19.57;100.00;100013.19;5075633;28;20970;-54
2021/06/28 04:47:51;;;;;;;0.43;0.30;;;;;;;19.99;100.00;100015.53;5075606;28;20468;-54
2021/06/28 04:50:22;;;;;;;0.40;0.20;;;;;;;19.91;100.00;100011.69;5075510;28;20946;-54
2021/06/28 04:52:54;;;;;;;0.40;0.30;;;;;;;19.83;100.00;100021.16;5073916;28;20478;-54
2021/06/28 04:55:22;;;;;;;0.50;0.33;;;;;;;19.90;100.00;100020.75;5064928;28;20523;-54
2021/06/28 04:57:50;;;;;;;0.50;0.50;;;;;;;19.72;100.00;100031.84;5065611;28;20824;-54
2021/06/28 05:00:22;;;;;;;0.47;0.30;;;;;;;20.33;100.00;100034.69;5062255;28;20485;-54
2021/06/28 05:02:49;;;;;;;0.50;0.40;;;;;;;20.48;100.00;100039.00;5072988;28;20447;-54
2021/06/28 05:05:16;;;;;;;0.40;0.37;;;;;;;20.63;100.00;100032.47;5075573;28;20446;-54
2021/06/28 05:07:43;;;;;;;1.07;1.07;;;;;;;20.57;100.00;100032.06;5070838;28;20461;-54
2021/06/28 05:10:12;;;;;;;0.40;0.20;;;;;;;20.48;100.00;100032.75;5066578;28;21033;-54
2021/06/28 05:12:39;;;;;;;0.40;0.20;;;;;;;20.46;100.00;100027.47;5064914;28;20474;-54
2021/06/28 05:15:07;;;;;;;0.40;0.20;;;;;;;20.58;100.00;100017.59;5066983;28;20503;-54
2021/06/28 05:17:34;;;;;;;0.50;0.33;;;;;;;20.43;100.00;100024.13;5075219;28;20506;-54
2021/06/28 05:20:05;;;;;;;0.40;0.20;;;;;;;20.47;100.00;100031.88;5063087;28;20470;-54
2021/06/28 05:22:32;;;;;;;0.40;0.20;;;;;;;20.54;100.00;100019.63;5070974;28;20477;-54
2021/06/28 05:24:59;;;;;;;6.73;2.17;;;;;;;21.43;100.00;100021.88;5075366;28;20454;-54
2021/06/28 05:27:25;;;;;;;0.50;0.30;;;;;;;22.19;100.00;99998.69;5054275;28;20514;-54
2021/06/28 05:29:55;;;;;;;0.50;0.40;;;;;;;22.37;100.00;100012.59;5054613;28;20952;-54
2021/06/28 05:32:27;;;;;;;0.50;0.40;;;;;;;22.17;100.00;99988.00;5054884;28;20483;-54
2021/06/28 05:34:54;;;;;;;0.40;0.20;;;;;;;21.81;100.00;99990.97;5055145;28;20470;-54
2021/06/28 05:37:21;;;;;;;0.50;0.30;;;;;;;21.77;100.00;99984.03;5054816;28;20446;-54
2021/06/28 05:39:48;;;;;;;0.50;0.20;;;;;;;22.07;100.00;99978.91;5054121;28;20595;-54
2021/06/28 05:42:15;;;;;;;0.50;0.30;;;;;;;22.18;100.00;99984.28;5054921;28;20429;-54
2021/06/28 05:44:42;;;;;;;0.40;0.30;;;;;;;21.95;100.00;99985.28;5054457;28;20459;-54
2021/06/28 05:47:11;;;;;;;0.50;0.50;;;;;;;22.27;100.00;99989.97;5054737;28;20442;-54
2021/06/28 05:49:39;;;;;;;0.50;0.30;;;;;;;22.09;100.00;99990.47;5054892;28;20500;-54
2021/06/28 05:52:07;;;;;;;1.23;1.10;;;;;;;22.56;100.00;99991.13;5054246;28;20815;-54
2021/06/28 05:54:34;;;;;;;0.43;0.20;;;;;;;21.94;100.00;99997.09;5056761;28;20465;-54
2021/06/28 05:57:01;;;;;;;0.60;0.60;;;;;;;21.97;100.00;99996.00;5074607;28;20914;-54
2021/06/28 05:59:28;;;;;;;0.50;0.40;;;;;;;21.98;100.00;100004.00;5070324;28;20462;-54
2021/06/28 06:01:54;;;;;;;0.50;0.43;;;;;;;22.38;100.00;99992.66;5054497;28;20471;-54
2021/06/28 06:04:21;;;;;;;0.50;0.40;;;;;;;21.64;100.00;99989.56;5054285;28;20451;-54
2021/06/28 06:06:48;;;;;;;0.40;0.20;;;;;;;22.03;100.00;99993.63;5065111;28;20810;-54
2021/06/28 06:09:14;;;;;;;1.60;0.43;;;;;;;21.69;100.00;99989.22;5073183;28;20489;-54
2021/06/28 06:11:41;;;;;;;0.73;0.50;;;;;;;21.44;100.00;99991.16;5074428;28;20470;-54
2021/06/28 06:14:08;;;;;;;1.50;1.47;;;;;;;21.35;100.00;100002.69;5074206;28;20457;-54
2021/06/28 06:16:34;;;;;;;0.50;0.20;;;;;;;21.42;100.00;100003.94;5063706;28;20855;-54
2021/06/28 06:19:01;;;;;;;1.13;1.13;;;;;;;21.56;100.00;100011.84;5070431;28;20445;-54
2021/06/28 06:21:28;;;;;;;0.50;0.30;;;;;;;21.75;100.00;100003.13;5074562;28;20452;-54
2021/06/28 06:23:55;;;;;;;0.50;0.40;;;;;;;21.66;100.00;100011.13;5060436;28;20454;-54
2021/06/28 06:26:21;;;;;;;0.40;0.20;;;;;;;21.69;100.00;100006.31;5064260;28;20517;-54
2021/06/28 06:28:49;;;;;;;0.40;0.30;;;;;;;22.08;100.00;100015.84;5071247;28;20497;-54
2021/06/28 06:31:19;;;;;;;0.40;0.30;;;;;;;22.36;99.96;100003.63;5073658;28;20470;-54
2021/06/28 06:33:46;;;;;;;0.40;0.30;;;;;;;22.91;98.40;100009.03;5074524;28;20409;-55
2021/06/28 06:36:12;;;;;;;0.50;0.23;;;;;;;23.24;96.40;100003.44;5074207;28;20452;-55
2021/06/28 06:38:40;;;;;;;0.50;0.30;;;;;;;23.26;94.61;99998.75;5073779;28;20480;-55
2021/06/28 06:41:06;;;;;;;0.50;0.30;;;;;;;23.69;93.21;100003.19;5062050;28;20448;-55
2021/06/28 06:43:33;;;;;;;0.50;0.20;;;;;;;23.77;92.92;99995.22;5069473;28;20493;-55
2021/06/28 06:46:00;;;;;;;0.50;0.20;;;;;;;24.20;92.37;99997.69;5072421;28;20949;-56
2021/06/28 06:48:27;;;;;;;0.50;0.30;;;;;;;24.12;91.60;100002.97;5068050;28;20490;-55
2021/06/28 06:50:54;;;;;;;0.50;0.40;;;;;;;24.40;90.13;100008.66;5064122;28;20527;-55
2021/06/28 06:53:21;;;;;;;0.50;0.30;;;;;;;24.51;89.41;100022.13;5060076;28;20424;-55
2021/06/28 06:55:48;;;;;;;0.50;0.30;;;;;;;24.77;87.14;100031.47;5073375;28;20796;-55
2021/06/28 06:58:14;;;;;;;0.50;0.30;;;;;;;24.69;86.75;100031.31;5073581;28;20425;-55
2021/06/28 07:00:42;;;;;;;0.50;0.40;;;;;;;25.34;84.14;100021.63;5063578;28;20457;-55
2021/06/28 07:03:10;;;;;;;0.50;0.20;;;;;;;24.88;84.98;100024.19;5059802;28;20420;-55
2021/06/28 07:05:37;;;;;;;2.47;2.27;;;;;;;25.38;83.73;100027.66;5073469;28;20507;-55
2021/06/28 07:08:05;;;;;;;0.47;0.30;;;;;;;25.65;81.09;100026.91;5073110;28;20461;-55
2021/06/28 07:10:31;;;;;;;0.50;0.50;;;;;;;25.46;81.26;100021.47;5073008;28;20440;-55
2021/06/28 07:12:58;;;;;;;0.53;0.53;;;;;;;25.63;81.01;100026.16;5059971;28;20439;-55
2021/06/28 07:15:25;;;;;;;0.87;0.87;;;;;;;25.65;80.89;100026.91;5059202;28;20469;-55
2021/06/28 07:17:52;;;;;;;0.50;0.30;;;;;;;25.92;80.83;100035.16;5073469;28;20450;-55
2021/06/28 07:20:22;;;;;;;0.60;0.47;;;;;;;25.87;81.70;100034.72;5072642;28;20440;-55
2021/06/28 07:22:51;;;;;;;0.50;0.37;;;;;;;25.57;81.90;100041.22;5063404;28;20456;-55
2021/06/28 07:25:18;;;;;;;0.60;0.60;;;;;;;25.59;82.59;100049.25;5072763;28;20447;-55
2021/06/28 07:27:45;;;;;;;0.50;0.30;;;;;;;26.09;80.86;100038.97;5064903;28;20493;-55
2021/06/28 07:30:15;;;;;;;0.50;0.27;;;;;;;26.19;80.45;100033.50;5055017;28;20491;-55
2021/06/28 07:32:42;;;;;;;5.90;1.43;;;;;;;26.26;80.43;100035.44;5062857;28;20424;-56
2021/06/28 07:35:11;;;;;;;0.50;0.30;;;;;;;26.21;79.57;100031.47;5072932;28;20575;-56
2021/06/28 07:37:39;;;;;;;10.30;1.03;;;;;;;25.95;79.13;100028.56;5072692;28;20421;-56
2021/06/28 07:40:08;;;;;;;0.83;0.83;;;;;;;26.35;77.29;100028.25;5072585;28;20477;-56
2021/06/28 07:42:34;;;;;;;0.50;0.50;;;;;;;26.07;80.33;100037.41;5061600;28;20421;-56
2021/06/28 07:45:02;;;;;;;0.50;0.30;;;;;;;26.18;80.27;100043.53;5064691;28;20428;-56
2021/06/28 07:47:30;;;;;;;0.50;0.27;;;;;;;26.45;79.95;100039.09;5066099;28;20462;-56
2021/06/28 07:49:58;;;;;;;0.50;0.30;;;;;;;26.12;81.01;100035.94;5072343;28;20512;-56
2021/06/28 07:52:26;;;;;;;0.50;0.20;;;;;;;26.18;82.21;100031.78;5072695;28;20450;-56
2021/06/28 07:54:53;;;;;;;0.50;0.30;;;;;;;26.57;81.11;100037.88;5072255;28;20910;-56
2021/06/28 07:57:20;;;;;;;0.50;0.30;;;;;;;27.36;78.55;100048.97;5060349;28;20417;-56
2021/06/28 07:59:47;;;;;;;0.50;0.30;;;;;;;26.61;81.39;100044.78;5071087;28;20723;-56
2021/06/28 08:02:14;;;;;;;2.30;2.20;;;;;;;26.52;82.12;100051.13;5066016;28;20454;-56
2021/06/28 08:04:40;;;;;;;0.70;0.70;;;;;;;26.51;83.03;100046.69;5059714;28;20545;-56
2021/06/28 08:07:07;;;;;;;0.83;0.80;;;;;;;26.49;81.61;100052.31;5064222;28;20462;-56
2021/06/28 08:09:51;;;;;;;0.40;0.20;;;;;;;26.49;81.33;100046.00;5072017;28;20485;-56
2021/06/28 08:12:17;;;;;;;0.57;0.40;;;;;;;26.68;79.72;100043.13;5071910;28;20431;-56
2021/06/28 08:14:44;;;;;;;0.50;0.30;;;;;;;26.40;79.75;100047.75;5072230;28;20971;-56
2021/06/28 08:17:11;;;;;;;0.50;0.30;;;;;;;26.88;75.96;100037.56;5058986;28;20479;-56
2021/06/28 08:19:37;;;;;;;0.60;0.40;;;;;;;26.61;76.05;100033.88;5072165;28;20420;-56
2021/06/28 08:22:04;;;;;;;0.50;0.30;;;;;;;26.87;74.88;100031.25;5067930;28;20461;-56
2021/06/28 08:24:31;;;;;;;0.43;0.20;;;;;;;26.86;76.13;100033.13;5072384;28;20449;-56
2021/06/28 08:26:57;;;;;;;0.50;0.30;;;;;;;26.99;77.12;100037.31;5071734;28;20917;-56
2021/06/28 08:29:24;;;;;;;0.50;0.23;;;;;;;27.11;77.28;100034.25;5063361;28;20540;-56
2021/06/28 08:31:50;;;;;;;1.57;0.53;;;;;;;27.49;75.01;100042.25;5054321;28;20841;-56
2021/06/28 08:34:17;;;;;;;0.50;0.30;;;;;;;27.78;74.07;100033.78;5071934;28;20472;-56
2021/06/28 08:36:45;;;;;;;1.33;1.23;;;;;;;27.51;72.36;100043.78;5071905;28;20940;-56
2021/06/28 08:39:14;;;;;;;0.50;0.30;;;;;;;27.95;72.48;100043.78;5060882;28;21013;-56
2021/06/28 08:41:48;;;;;;;0.50;0.30;;;;;;;27.60;72.63;100047.47;5065341;28;20467;-56
2021/06/28 08:44:15;;;;;;;0.50;0.30;;;;;;;27.41;74.51;100051.22;5051838;28;20414;-56
2021/06/28 08:46:43;;;;;;;0.50;0.50;;;;;;;27.40;73.80;100072.19;5070120;28;20446;-56
2021/06/28 08:49:10;;;;;;;0.50;0.30;;;;;;;27.19;74.09;100084.47;5060290;28;20933;-56
2021/06/28 08:51:37;;;;;;;0.50;0.40;;;;;;;26.71;75.81;100097.38;5056553;28;20465;-56
2021/06/28 08:54:09;;;;;;;0.50;0.47;;;;;;;26.67;77.03;100103.31;5071652;28;20952;-56
2021/06/28 08:56:38;;;;;;;0.50;0.30;;;;;;;26.63;77.71;100116.38;5064482;28;20912;-56
2021/06/28 08:59:09;;;;;;;0.47;0.30;;;;;;;26.25;80.26;100109.19;5051772;28;20443;-56
2021/06/28 09:01:38;;;;;;;0.50;0.30;;;;;;;26.52;79.71;100097.50;5065915;28;20862;-56
2021/06/28 09:04:07;;;;;;;0.50;0.30;;;;;;;26.35;79.87;100090.09;5072385;28;20488;-57
2021/06/28 09:06:33;;;;;;;3.00;0.63;;;;;;;26.66;77.83;100091.53;5072656;28;20500;-57
2021/06/28 09:09:10;;;;;;;0.50;0.30;;;;;;;26.61;79.49;100091.13;5056891;28;20517;-56
2021/06/28 09:11:40;;;;;;;0.63;0.63;;;;;;;26.40;80.65;100085.06;5060858;28;20482;-56
2021/06/28 09:14:08;;;;;;;0.60;0.60;;;;;;;26.66;78.79;100074.31;5061244;28;20453;-56
2021/06/28 09:16:36;;;;;;;0.60;0.60;;;;;;;26.77;79.64;100069.50;5075533;28;20416;-56
2021/06/28 09:19:16;;;;;;;0.50;0.30;;;;;;;26.81;78.88;100062.72;5071281;28;20806;-56
2021/06/28 09:21:51;;;;;;;0.57;0.57;;;;;;;26.58;78.95;100039.59;5057224;28;20457;-56
2021/06/28 09:24:35;;;;;;;0.50;0.30;;;;;;;26.33;80.80;100032.13;5062683;28;20416;-56
2021/06/28 09:27:11;;;;;;;0.50;0.30;;;;;;;26.76;79.04;100034.22;5061809;28;20445;-56
2021/06/28 09:29:48;;;;;;;0.60;0.60;;;;;;;26.72;79.06;100043.69;5074870;28;20459;-56
2021/06/28 09:32:16;;;;;;;0.50;0.40;;;;;;;27.00;77.89;100044.50;5056520;28;20425;-56
2021/06/28 09:34:45;;;;;;;0.50;0.30;;;;;;;27.27;76.96;100058.09;5068466;28;20499;-56
2021/06/28 09:37:13;;;;;;;0.50;0.20;;;;;;;27.56;75.80;100054.28;5066833;28;20944;-56
2021/06/28 09:39:42;;;;;;;0.50;0.40;;;;;;;27.81;74.65;100061.63;5054812;28;20443;-56
2021/06/28 09:42:15;;;;;;;0.60;0.60;;;;;;;27.74;75.01;100057.84;5062341;28;20449;-56
2021/06/28 09:44:53;;;;;;;0.50;0.20;;;;;;;27.99;74.68;100059.72;5072533;28;20461;-56
2021/06/28 09:47:24;;;;;;;0.50;0.30;;;;;;;28.17;74.39;100056.91;5065710;28;20485;-56
2021/06/28 09:50:10;;;;;;;0.43;0.30;;;;;;;28.06;73.78;100053.59;5074512;28;20485;-56
2021/06/28 09:52:47;;;;;;;0.50;0.30;;;;;;;28.16;73.53;100048.88;5074958;28;20438;-56
2021/06/28 09:55:20;;;;;;;0.50;0.50;;;;;;;28.32;73.02;100033.44;5054295;28;20466;-56
2021/06/28 09:58:05;;;;;;;0.60;0.60;;;;;;;27.91;73.61;100040.53;5053271;28;20923;-56
2021/06/28 10:00:55;;;;;;;0.60;0.60;;;;;;;28.11;74.29;100060.31;5054634;28;20489;-56
2021/06/28 10:03:33;;;;;;;0.50;0.40;;;;;;;28.37;71.52;100046.59;5053356;28;20467;-56
2021/06/28 10:08:59;;;;;;;0.50;0.30;;;;;;;28.66;71.97;100034.44;5053650;28;20532;-56
2021/06/28 10:11:28;;;;;;;0.70;0.67;;;;;;;28.45;73.53;100038.44;5054306;28;20462;-56
2021/06/28 10:14:05;;;;;;;0.53;0.43;;;;;;;28.33;73.45;100043.34;5056480;28;20447;-56
2021/06/28 10:16:37;;;;;;;0.50;0.50;;;;;;;28.55;72.93;100047.38;5071817;28;20570;-56
2021/06/28 10:19:06;;;;;;;0.50;0.40;;;;;;;28.40;73.19;100046.31;5074417;28;20857;-56
2021/06/28 10:21:35;;;;;;;0.50;0.30;;;;;;;28.50;71.61;100047.00;5074042;28;20485;-56
2021/06/28 10:24:02;;;;;;;0.50;0.30;;;;;;;29.19;69.16;100037.66;5060990;28;20450;-56
2021/06/28 10:26:29;;;;;;;0.50;0.50;;;;;;;28.50;69.96;100035.22;5073274;28;20453;-56
2021/06/28 10:28:56;;;;;;;1.10;0.93;;;;;;;28.70;70.07;100028.44;5060252;28;21064;-56
2021/06/28 10:31:23;;;;;;;0.50;0.30;;;;;;;28.63;72.53;100030.97;5060587;28;20506;-56
2021/06/28 10:33:59;;;;;;;0.50;0.30;;;;;;;28.78;71.85;100033.06;5072480;28;20450;-56
2021/06/28 10:36:38;;;;;;;0.43;0.30;;;;;;;29.14;69.18;100030.94;5059801;28;20446;-56
2021/06/28 10:39:24;;;;;;;0.50;0.30;;;;;;;29.00;70.23;100020.66;5062266;28;20491;-56
2021/06/28 10:41:53;;;;;;;0.67;0.67;;;;;;;28.88;69.90;100023.72;5055908;28;20471;-56
2021/06/28 10:44:22;;;;;;;1.87;1.77;;;;;;;29.23;70.22;100021.72;5059632;28;20549;-56
2021/06/28 10:46:57;;;;;;;1.70;1.60;;;;;;;29.12;70.40;100008.38;5059127;28;20852;-56
2021/06/28 10:49:57;;;;;;;0.50;0.50;;;;;;;28.78;68.31;100003.84;5073281;28;20520;-56
2021/06/28 10:52:38;;;;;;;0.50;0.43;;;;;;;28.10;69.29;100006.66;5061435;28;20455;-56
2021/06/28 10:55:17;;;;;;;0.50;0.30;;;;;;;28.43;68.37;100013.16;5053345;28;20451;-56
2021/06/28 10:57:47;;;;;;;0.50;0.30;;;;;;;28.83;68.21;100011.56;5056336;28;20487;-56
2021/06/28 11:00:15;;;;;;;0.40;0.30;;;;;;;28.36;69.54;99994.81;5065624;28;20453;-56
2021/06/28 11:02:43;;;;;;;0.50;0.40;;;;;;;28.90;70.16;100016.19;5069492;28;20919;-56
2021/06/28 11:05:11;;;;;;;0.50;0.30;;;;;;;28.87;69.00;100004.75;5063662;28;20451;-56
2021/06/28 11:07:48;;;;;;;0.97;0.87;;;;;;;29.04;70.16;100006.47;5053432;28;20447;-56
2021/06/28 11:10:34;;;;;;;0.50;0.30;;;;;;;29.22;69.16;100002.72;5053176;28;20493;-56
2021/06/28 11:13:29;;;;;;;0.50;0.30;;;;;;;29.02;67.84;99997.56;5061783;28;20532;-56
2021/06/28 11:16:28;;;;;;;0.50;0.30;;;;;;;29.00;68.73;99999.63;5057554;28;20473;-56
2021/06/28 11:18:55;;;;;;;1.47;0.57;;;;;;;28.86;67.13;99995.63;5072613;28;20875;-56
2021/06/28 11:21:41;;;;;;;0.50;0.30;;;;;;;28.91;69.23;99995.16;5068972;28;20556;-56
2021/06/28 11:24:08;;;;;;;0.40;0.30;;;;;;;28.81;70.06;99999.91;5071484;28;20519;-56
2021/06/28 11:26:35;;;;;;;0.40;0.30;;;;;;;29.07;69.31;99995.19;5059546;28;20446;-56
2021/06/28 11:29:03;;;;;;;0.50;0.30;;;;;;;29.77;67.38;99998.25;5064534;28;20490;-56
2021/06/28 11:31:31;;;;;;;0.50;0.30;;;;;;;29.94;64.90;99993.56;5053022;28;20951;-56
2021/06/28 11:34:00;;;;;;;0.50;0.30;;;;;;;30.55;64.56;99997.44;5060309;28;20446;-56
2021/06/28 11:36:26;;;;;;;3.80;0.73;;;;;;;30.48;63.60;99996.47;5058379;28;20451;-56